sensor_id;sensor_type;location;lat;lon;timestamp;P1;durP1;ratioP1;P2;durP2;ratioP2
735;SDS011;352;48.626;9.238;2022-07-23T00:00:11;357.87;;;230.37;;
735;SDS011;352;48.626;9.238;2022-07-23T00:02:38;353.43;;;216.17;;
735;SDS011;352;48.626;9.238;2022-07-23T00:05:05;354.27;;;222.83;;
735;SDS011;352;48.626;9.238;2022-07-23T00:07:33;358.53;;;223.10;;
735;SDS011;352;48.626;9.238;2022-07-23T00:10:01;369.50;;;251.10;;
735;SDS011;352;48.626;9.238;2022-07-23T00:12:28;357.73;;;219.27;;
735;SDS011;352;48.626;9.238;2022-07-23T00:14:55;356.47;;;230.17;;
735;SDS011;352;48.626;9.238;2022-07-23T00:17:22;358.43;;;228.43;;
735;SDS011;352;48.626;9.238;2022-07-23T00:19:49;358.43;;;233.87;;
735;SDS011;352;48.626;9.238;2022-07-23T00:22:18;353.03;;;215.67;;
735;SDS011;352;48.626;9.238;2022-07-23T00:24:45;361.27;;;263.70;;
735;SDS011;352;48.626;9.238;2022-07-23T00:27:13;362.50;;;241.07;;
735;SDS011;352;48.626;9.238;2022-07-23T00:29:40;358.67;;;220.23;;
735;SDS011;352;48.626;9.238;2022-07-23T00:32:07;354.20;;;220.23;;
735;SDS011;352;48.626;9.238;2022-07-23T00:34:34;352.80;;;219.57;;
735;SDS011;352;48.626;9.238;2022-07-23T00:37:01;357.60;;;222.77;;
735;SDS011;352;48.626;9.238;2022-07-23T00:39:28;355.03;;;218.97;;
735;SDS011;352;48.626;9.238;2022-07-23T00:41:55;353.67;;;213.07;;
735;SDS011;352;48.626;9.238;2022-07-23T00:44:25;351.07;;;213.93;;
735;SDS011;352;48.626;9.238;2022-07-23T00:46:53;352.57;;;224.30;;
735;SDS011;352;48.626;9.238;2022-07-23T00:49:21;350.10;;;206.77;;
735;SDS011;352;48.626;9.238;2022-07-23T00:51:48;358.23;;;224.93;;
735;SDS011;352;48.626;9.238;2022-07-23T00:54:16;352.43;;;216.43;;
735;SDS011;352;48.626;9.238;2022-07-23T00:56:43;352.00;;;208.77;;
735;SDS011;352;48.626;9.238;2022-07-23T00:59:12;354.67;;;212.87;;
735;SDS011;352;48.626;9.238;2022-07-23T01:01:41;363.63;;;236.87;;
735;SDS011;352;48.626;9.238;2022-07-23T01:04:09;351.97;;;214.00;;
735;SDS011;352;48.626;9.238;2022-07-23T01:06:36;354.13;;;214.87;;
735;SDS011;352;48.626;9.238;2022-07-23T01:09:04;353.97;;;221.43;;
735;SDS011;352;48.626;9.238;2022-07-23T01:11:32;375.10;;;259.60;;
735;SDS011;352;48.626;9.238;2022-07-23T01:14:07;348.57;;;206.03;;
735;SDS011;352;48.626;9.238;2022-07-23T01:16:34;354.53;;;219.67;;
735;SDS011;352;48.626;9.238;2022-07-23T01:19:02;349.03;;;208.47;;
735;SDS011;352;48.626;9.238;2022-07-23T01:21:31;367.17;;;249.00;;
735;SDS011;352;48.626;9.238;2022-07-23T01:24:00;352.10;;;207.57;;
735;SDS011;352;48.626;9.238;2022-07-23T01:26:27;350.57;;;211.40;;
735;SDS011;352;48.626;9.238;2022-07-23T01:28:54;351.57;;;210.83;;
735;SDS011;352;48.626;9.238;2022-07-23T01:31:21;349.93;;;205.47;;
735;SDS011;352;48.626;9.238;2022-07-23T01:33:48;352.07;;;212.37;;
735;SDS011;352;48.626;9.238;2022-07-23T01:36:15;358.23;;;220.50;;
735;SDS011;352;48.626;9.238;2022-07-23T01:38:42;355.53;;;221.60;;
735;SDS011;352;48.626;9.238;2022-07-23T01:41:11;356.67;;;215.47;;
735;SDS011;352;48.626;9.238;2022-07-23T01:43:38;352.43;;;212.33;;
735;SDS011;352;48.626;9.238;2022-07-23T01:46:05;359.83;;;236.30;;
735;SDS011;352;48.626;9.238;2022-07-23T01:48:32;348.20;;;207.30;;
735;SDS011;352;48.626;9.238;2022-07-23T01:50:59;349.80;;;206.97;;
735;SDS011;352;48.626;9.238;2022-07-23T01:53:26;355.63;;;212.37;;
735;SDS011;352;48.626;9.238;2022-07-23T01:55:56;354.37;;;213.97;;
735;SDS011;352;48.626;9.238;2022-07-23T01:58:24;357.13;;;233.37;;
735;SDS011;352;48.626;9.238;2022-07-23T02:00:51;349.63;;;206.03;;
735;SDS011;352;48.626;9.238;2022-07-23T02:03:19;348.73;;;212.53;;
735;SDS011;352;48.626;9.238;2022-07-23T02:05:46;343.87;;;195.80;;
735;SDS011;352;48.626;9.238;2022-07-23T02:08:13;350.63;;;212.10;;
735;SDS011;352;48.626;9.238;2022-07-23T02:10:40;341.80;;;192.90;;
735;SDS011;352;48.626;9.238;2022-07-23T02:13:07;353.37;;;202.83;;
735;SDS011;352;48.626;9.238;2022-07-23T02:15:36;353.37;;;222.23;;
735;SDS011;352;48.626;9.238;2022-07-23T02:18:03;352.77;;;218.77;;
735;SDS011;352;48.626;9.238;2022-07-23T02:20:30;344.23;;;197.57;;
735;SDS011;352;48.626;9.238;2022-07-23T02:22:57;355.43;;;216.63;;
735;SDS011;352;48.626;9.238;2022-07-23T02:25:24;361.37;;;227.80;;
735;SDS011;352;48.626;9.238;2022-07-23T02:27:51;362.40;;;230.67;;
735;SDS011;352;48.626;9.238;2022-07-23T02:30:18;360.90;;;226.27;;
735;SDS011;352;48.626;9.238;2022-07-23T02:32:46;358.53;;;214.60;;
735;SDS011;352;48.626;9.238;2022-07-23T02:35:13;354.57;;;209.93;;
735;SDS011;352;48.626;9.238;2022-07-23T02:37:40;364.13;;;226.23;;
735;SDS011;352;48.626;9.238;2022-07-23T02:40:08;351.73;;;205.27;;
735;SDS011;352;48.626;9.238;2022-07-23T02:42:35;352.17;;;210.63;;
735;SDS011;352;48.626;9.238;2022-07-23T02:45:02;343.80;;;197.30;;
735;SDS011;352;48.626;9.238;2022-07-23T02:47:29;345.73;;;196.17;;
735;SDS011;352;48.626;9.238;2022-07-23T02:49:58;352.37;;;212.43;;
735;SDS011;352;48.626;9.238;2022-07-23T02:52:25;359.20;;;219.77;;
735;SDS011;352;48.626;9.238;2022-07-23T02:54:52;349.60;;;205.90;;
735;SDS011;352;48.626;9.238;2022-07-23T02:57:19;345.43;;;193.87;;
735;SDS011;352;48.626;9.238;2022-07-23T02:59:46;354.07;;;212.53;;
735;SDS011;352;48.626;9.238;2022-07-23T03:02:13;351.20;;;204.47;;
735;SDS011;352;48.626;9.238;2022-07-23T03:04:40;347.97;;;200.23;;
735;SDS011;352;48.626;9.238;2022-07-23T03:07:09;349.63;;;205.90;;
735;SDS011;352;48.626;9.238;2022-07-23T03:09:36;351.00;;;201.30;;
735;SDS011;352;48.626;9.238;2022-07-23T03:12:03;352.57;;;200.63;;
735;SDS011;352;48.626;9.238;2022-07-23T03:14:30;358.73;;;211.67;;
735;SDS011;352;48.626;9.238;2022-07-23T03:16:57;351.83;;;202.10;;
735;SDS011;352;48.626;9.238;2022-07-23T03:19:25;356.93;;;211.63;;
735;SDS011;352;48.626;9.238;2022-07-23T03:21:52;357.43;;;209.40;;
735;SDS011;352;48.626;9.238;2022-07-23T03:24:21;355.97;;;210.60;;
735;SDS011;352;48.626;9.238;2022-07-23T03:26:48;350.27;;;201.17;;
735;SDS011;352;48.626;9.238;2022-07-23T03:29:15;358.30;;;199.80;;
735;SDS011;352;48.626;9.238;2022-07-23T03:31:43;354.70;;;204.03;;
735;SDS011;352;48.626;9.238;2022-07-23T03:34:10;355.90;;;201.07;;
735;SDS011;352;48.626;9.238;2022-07-23T03:36:37;357.43;;;210.07;;
735;SDS011;352;48.626;9.238;2022-07-23T03:39:04;359.50;;;206.97;;
735;SDS011;352;48.626;9.238;2022-07-23T03:41:33;372.33;;;235.90;;
735;SDS011;352;48.626;9.238;2022-07-23T03:43:59;366.80;;;228.87;;
735;SDS011;352;48.626;9.238;2022-07-23T03:46:26;357.47;;;211.07;;
735;SDS011;352;48.626;9.238;2022-07-23T03:48:53;353.77;;;199.57;;
735;SDS011;352;48.626;9.238;2022-07-23T03:51:20;346.63;;;183.77;;
735;SDS011;352;48.626;9.238;2022-07-23T03:53:47;355.13;;;199.73;;
735;SDS011;352;48.626;9.238;2022-07-23T03:56:15;356.33;;;201.70;;
735;SDS011;352;48.626;9.238;2022-07-23T03:58:43;361.27;;;210.23;;
735;SDS011;352;48.626;9.238;2022-07-23T04:01:10;353.43;;;200.50;;
735;SDS011;352;48.626;9.238;2022-07-23T04:03:37;356.10;;;208.10;;
735;SDS011;352;48.626;9.238;2022-07-23T04:06:05;351.93;;;199.53;;
735;SDS011;352;48.626;9.238;2022-07-23T04:08:32;356.37;;;202.57;;
735;SDS011;352;48.626;9.238;2022-07-23T04:10:59;358.70;;;203.37;;
735;SDS011;352;48.626;9.238;2022-07-23T04:13:26;361.23;;;211.27;;
735;SDS011;352;48.626;9.238;2022-07-23T04:15:54;355.83;;;196.73;;
735;SDS011;352;48.626;9.238;2022-07-23T04:18:21;354.17;;;193.63;;
735;SDS011;352;48.626;9.238;2022-07-23T04:20:48;357.00;;;199.90;;
735;SDS011;352;48.626;9.238;2022-07-23T04:23:15;359.93;;;206.47;;
735;SDS011;352;48.626;9.238;2022-07-23T04:25:42;360.03;;;208.07;;
735;SDS011;352;48.626;9.238;2022-07-23T04:28:10;356.27;;;200.03;;
735;SDS011;352;48.626;9.238;2022-07-23T04:30:37;356.40;;;198.90;;
735;SDS011;352;48.626;9.238;2022-07-23T04:33:05;359.37;;;194.63;;
735;SDS011;352;48.626;9.238;2022-07-23T04:35:32;358.20;;;192.60;;
735;SDS011;352;48.626;9.238;2022-07-23T04:37:59;354.73;;;196.33;;
735;SDS011;352;48.626;9.238;2022-07-23T04:40:26;361.27;;;206.67;;
735;SDS011;352;48.626;9.238;2022-07-23T04:42:54;357.03;;;202.57;;
735;SDS011;352;48.626;9.238;2022-07-23T04:45:21;353.43;;;196.53;;
735;SDS011;352;48.626;9.238;2022-07-23T04:47:48;351.03;;;190.90;;
735;SDS011;352;48.626;9.238;2022-07-23T04:50:17;358.13;;;214.43;;
735;SDS011;352;48.626;9.238;2022-07-23T04:52:46;356.63;;;202.77;;
735;SDS011;352;48.626;9.238;2022-07-23T04:55:13;359.37;;;204.30;;
735;SDS011;352;48.626;9.238;2022-07-23T04:57:40;357.13;;;204.73;;
735;SDS011;352;48.626;9.238;2022-07-23T05:00:08;361.73;;;210.80;;
735;SDS011;352;48.626;9.238;2022-07-23T05:02:35;355.97;;;202.97;;
735;SDS011;352;48.626;9.238;2022-07-23T05:05:03;360.60;;;213.93;;
735;SDS011;352;48.626;9.238;2022-07-23T05:07:31;362.27;;;211.30;;
735;SDS011;352;48.626;9.238;2022-07-23T05:09:58;362.97;;;220.27;;
735;SDS011;352;48.626;9.238;2022-07-23T05:12:25;357.40;;;206.60;;
735;SDS011;352;48.626;9.238;2022-07-23T05:14:53;370.80;;;235.17;;
735;SDS011;352;48.626;9.238;2022-07-23T05:17:20;363.13;;;223.73;;
735;SDS011;352;48.626;9.238;2022-07-23T05:19:47;360.37;;;217.83;;
735;SDS011;352;48.626;9.238;2022-07-23T05:22:14;358.13;;;212.03;;
735;SDS011;352;48.626;9.238;2022-07-23T05:24:42;361.50;;;219.53;;
735;SDS011;352;48.626;9.238;2022-07-23T05:27:09;359.50;;;216.17;;
735;SDS011;352;48.626;9.238;2022-07-23T05:29:36;367.73;;;230.20;;
735;SDS011;352;48.626;9.238;2022-07-23T05:32:03;365.87;;;228.00;;
735;SDS011;352;48.626;9.238;2022-07-23T05:34:30;365.27;;;228.33;;
735;SDS011;352;48.626;9.238;2022-07-23T05:36:57;366.47;;;237.37;;
735;SDS011;352;48.626;9.238;2022-07-23T05:39:24;366.10;;;234.23;;
735;SDS011;352;48.626;9.238;2022-07-23T05:41:53;363.67;;;224.83;;
735;SDS011;352;48.626;9.238;2022-07-23T05:44:20;371.20;;;238.43;;
735;SDS011;352;48.626;9.238;2022-07-23T05:46:47;361.80;;;233.23;;
735;SDS011;352;48.626;9.238;2022-07-23T05:49:14;362.50;;;229.73;;
735;SDS011;352;48.626;9.238;2022-07-23T05:51:41;367.20;;;239.03;;
735;SDS011;352;48.626;9.238;2022-07-23T05:54:08;365.60;;;229.23;;
735;SDS011;352;48.626;9.238;2022-07-23T05:56:35;364.57;;;227.67;;
735;SDS011;352;48.626;9.238;2022-07-23T05:59:03;359.33;;;214.33;;
735;SDS011;352;48.626;9.238;2022-07-23T06:01:31;368.30;;;240.10;;
735;SDS011;352;48.626;9.238;2022-07-23T06:03:58;359.43;;;220.03;;
735;SDS011;352;48.626;9.238;2022-07-23T06:06:25;369.60;;;242.90;;
735;SDS011;352;48.626;9.238;2022-07-23T06:08:52;362.63;;;226.87;;
735;SDS011;352;48.626;9.238;2022-07-23T06:11:19;368.60;;;245.87;;
735;SDS011;352;48.626;9.238;2022-07-23T06:13:46;360.50;;;228.80;;
735;SDS011;352;48.626;9.238;2022-07-23T06:16:14;366.43;;;238.30;;
735;SDS011;352;48.626;9.238;2022-07-23T06:18:41;363.33;;;233.23;;
735;SDS011;352;48.626;9.238;2022-07-23T06:21:08;367.33;;;241.60;;
735;SDS011;352;48.626;9.238;2022-07-23T06:23:35;360.40;;;240.53;;
735;SDS011;352;48.626;9.238;2022-07-23T06:26:02;359.67;;;247.50;;
735;SDS011;352;48.626;9.238;2022-07-23T06:28:29;359.43;;;259.40;;
735;SDS011;352;48.626;9.238;2022-07-23T06:30:56;366.70;;;282.00;;
735;SDS011;352;48.626;9.238;2022-07-23T06:33:25;361.93;;;281.67;;
735;SDS011;352;48.626;9.238;2022-07-23T06:35:52;366.33;;;295.37;;
735;SDS011;352;48.626;9.238;2022-07-23T06:38:19;366.43;;;301.57;;
735;SDS011;352;48.626;9.238;2022-07-23T06:40:46;363.80;;;310.73;;
735;SDS011;352;48.626;9.238;2022-07-23T06:43:13;367.00;;;316.40;;
735;SDS011;352;48.626;9.238;2022-07-23T06:45:40;374.30;;;330.60;;
735;SDS011;352;48.626;9.238;2022-07-23T06:48:07;369.90;;;324.97;;
735;SDS011;352;48.626;9.238;2022-07-23T06:50:36;393.33;;;351.43;;
735;SDS011;352;48.626;9.238;2022-07-23T06:53:02;383.47;;;342.27;;
735;SDS011;352;48.626;9.238;2022-07-23T06:55:29;379.70;;;338.80;;
735;SDS011;352;48.626;9.238;2022-07-23T06:57:57;389.97;;;349.17;;
735;SDS011;352;48.626;9.238;2022-07-23T07:00:24;381.80;;;340.83;;
735;SDS011;352;48.626;9.238;2022-07-23T07:02:53;403.43;;;361.77;;
735;SDS011;352;48.626;9.238;2022-07-23T07:05:20;412.67;;;371.03;;
735;SDS011;352;48.626;9.238;2022-07-23T07:07:49;409.50;;;368.00;;
735;SDS011;352;48.626;9.238;2022-07-23T07:10:16;415.10;;;373.20;;
735;SDS011;352;48.626;9.238;2022-07-23T07:12:43;414.20;;;372.43;;
735;SDS011;352;48.626;9.238;2022-07-23T07:15:10;411.97;;;369.83;;
735;SDS011;352;48.626;9.238;2022-07-23T07:17:37;405.03;;;363.13;;
735;SDS011;352;48.626;9.238;2022-07-23T07:20:05;412.30;;;369.70;;
735;SDS011;352;48.626;9.238;2022-07-23T07:22:32;394.07;;;352.07;;
735;SDS011;352;48.626;9.238;2022-07-23T07:25:01;396.77;;;354.67;;
735;SDS011;352;48.626;9.238;2022-07-23T07:27:28;399.90;;;357.77;;
735;SDS011;352;48.626;9.238;2022-07-23T07:29:55;379.40;;;335.33;;
735;SDS011;352;48.626;9.238;2022-07-23T07:32:22;385.27;;;343.10;;
735;SDS011;352;48.626;9.238;2022-07-23T07:34:49;400.10;;;357.40;;
735;SDS011;352;48.626;9.238;2022-07-23T07:37:16;392.03;;;349.87;;
735;SDS011;352;48.626;9.238;2022-07-23T07:39:43;376.00;;;330.57;;
735;SDS011;352;48.626;9.238;2022-07-23T07:42:12;395.70;;;353.33;;
735;SDS011;352;48.626;9.238;2022-07-23T07:44:39;379.37;;;337.67;;
735;SDS011;352;48.626;9.238;2022-07-23T07:47:06;385.40;;;343.40;;
735;SDS011;352;48.626;9.238;2022-07-23T07:49:33;387.50;;;345.37;;
735;SDS011;352;48.626;9.238;2022-07-23T07:52:00;388.77;;;346.37;;
735;SDS011;352;48.626;9.238;2022-07-23T07:54:28;375.70;;;326.07;;
735;SDS011;352;48.626;9.238;2022-07-23T07:56:55;396.10;;;353.20;;
735;SDS011;352;48.626;9.238;2022-07-23T07:59:23;374.60;;;329.13;;
735;SDS011;352;48.626;9.238;2022-07-23T08:01:50;391.47;;;349.27;;
735;SDS011;352;48.626;9.238;2022-07-23T08:04:17;375.53;;;319.37;;
735;SDS011;352;48.626;9.238;2022-07-23T08:06:44;375.80;;;321.67;;
735;SDS011;352;48.626;9.238;2022-07-23T08:09:11;375.93;;;322.03;;
735;SDS011;352;48.626;9.238;2022-07-23T08:11:39;399.90;;;356.93;;
735;SDS011;352;48.626;9.238;2022-07-23T08:14:06;377.43;;;330.07;;
735;SDS011;352;48.626;9.238;2022-07-23T08:16:35;379.10;;;331.27;;
735;SDS011;352;48.626;9.238;2022-07-23T08:19:02;379.67;;;337.87;;
735;SDS011;352;48.626;9.238;2022-07-23T08:21:29;448.07;;;403.97;;
735;SDS011;352;48.626;9.238;2022-07-23T08:23:56;383.77;;;341.93;;
735;SDS011;352;48.626;9.238;2022-07-23T08:26:23;398.97;;;356.73;;
735;SDS011;352;48.626;9.238;2022-07-23T08:28:50;392.37;;;350.33;;
735;SDS011;352;48.626;9.238;2022-07-23T08:31:18;411.77;;;369.27;;
735;SDS011;352;48.626;9.238;2022-07-23T08:33:46;410.60;;;368.43;;
735;SDS011;352;48.626;9.238;2022-07-23T08:36:13;413.00;;;370.63;;
735;SDS011;352;48.626;9.238;2022-07-23T08:38:40;415.57;;;373.10;;
735;SDS011;352;48.626;9.238;2022-07-23T08:41:08;408.33;;;365.87;;
735;SDS011;352;48.626;9.238;2022-07-23T08:43:35;406.10;;;363.67;;
735;SDS011;352;48.626;9.238;2022-07-23T08:46:03;405.47;;;363.03;;
735;SDS011;352;48.626;9.238;2022-07-23T08:48:30;415.77;;;373.33;;
735;SDS011;352;48.626;9.238;2022-07-23T08:51:05;410.60;;;368.10;;
735;SDS011;352;48.626;9.238;2022-07-23T08:53:33;408.60;;;365.90;;
735;SDS011;352;48.626;9.238;2022-07-23T08:56:04;415.67;;;373.17;;
735;SDS011;352;48.626;9.238;2022-07-23T08:58:32;408.47;;;366.20;;
735;SDS011;352;48.626;9.238;2022-07-23T09:01:00;409.90;;;367.70;;
735;SDS011;352;48.626;9.238;2022-07-23T09:03:27;396.57;;;354.50;;
735;SDS011;352;48.626;9.238;2022-07-23T09:05:56;394.17;;;351.90;;
735;SDS011;352;48.626;9.238;2022-07-23T09:08:24;408.37;;;365.70;;
735;SDS011;352;48.626;9.238;2022-07-23T09:10:53;420.10;;;377.07;;
735;SDS011;352;48.626;9.238;2022-07-23T09:13:28;422.87;;;379.87;;
735;SDS011;352;48.626;9.238;2022-07-23T09:16:01;405.53;;;363.13;;
735;SDS011;352;48.626;9.238;2022-07-23T09:18:30;390.20;;;348.27;;
735;SDS011;352;48.626;9.238;2022-07-23T09:23:51;424.80;;;381.80;;
735;SDS011;352;48.626;9.238;2022-07-23T09:26:21;425.87;;;383.40;;
735;SDS011;352;48.626;9.238;2022-07-23T09:28:56;432.63;;;390.10;;
735;SDS011;352;48.626;9.238;2022-07-23T09:31:25;450.27;;;407.43;;
735;SDS011;352;48.626;9.238;2022-07-23T09:34:06;450.53;;;407.93;;
735;SDS011;352;48.626;9.238;2022-07-23T09:36:38;467.03;;;423.93;;
735;SDS011;352;48.626;9.238;2022-07-23T09:39:06;475.67;;;432.23;;
735;SDS011;352;48.626;9.238;2022-07-23T09:41:34;496.73;;;452.47;;
735;SDS011;352;48.626;9.238;2022-07-23T09:44:06;479.03;;;435.17;;
735;SDS011;352;48.626;9.238;2022-07-23T09:46:35;478.60;;;435.20;;
735;SDS011;352;48.626;9.238;2022-07-23T09:49:09;466.10;;;422.87;;
735;SDS011;352;48.626;9.238;2022-07-23T09:51:43;488.53;;;444.60;;
735;SDS011;352;48.626;9.238;2022-07-23T09:54:20;447.00;;;404.50;;
735;SDS011;352;48.626;9.238;2022-07-23T09:56:52;481.57;;;438.23;;
735;SDS011;352;48.626;9.238;2022-07-23T09:59:20;482.30;;;438.87;;
735;SDS011;352;48.626;9.238;2022-07-23T10:01:49;495.73;;;452.17;;
735;SDS011;352;48.626;9.238;2022-07-23T10:04:17;505.00;;;461.33;;
735;SDS011;352;48.626;9.238;2022-07-23T10:06:44;534.67;;;490.10;;
735;SDS011;352;48.626;9.238;2022-07-23T10:09:12;579.60;;;534.20;;
735;SDS011;352;48.626;9.238;2022-07-23T10:11:40;586.13;;;540.13;;
735;SDS011;352;48.626;9.238;2022-07-23T10:14:07;559.57;;;514.47;;
735;SDS011;352;48.626;9.238;2022-07-23T10:16:35;554.77;;;509.63;;
735;SDS011;352;48.626;9.238;2022-07-23T10:19:02;564.63;;;519.23;;
735;SDS011;352;48.626;9.238;2022-07-23T10:21:30;592.90;;;546.77;;
735;SDS011;352;48.626;9.238;2022-07-23T10:24:10;566.97;;;521.47;;
735;SDS011;352;48.626;9.238;2022-07-23T10:26:48;597.33;;;551.93;;
735;SDS011;352;48.626;9.238;2022-07-23T10:29:26;655.03;;;607.83;;
735;SDS011;352;48.626;9.238;2022-07-23T10:32:08;624.20;;;577.83;;
735;SDS011;352;48.626;9.238;2022-07-23T10:34:44;658.83;;;611.63;;
735;SDS011;352;48.626;9.238;2022-07-23T10:37:22;669.03;;;621.77;;
735;SDS011;352;48.626;9.238;2022-07-23T10:40:11;650.50;;;604.73;;
735;SDS011;352;48.626;9.238;2022-07-23T10:42:41;612.43;;;567.03;;
735;SDS011;352;48.626;9.238;2022-07-23T10:45:24;606.57;;;561.07;;
735;SDS011;352;48.626;9.238;2022-07-23T10:47:53;582.63;;;537.40;;
735;SDS011;352;48.626;9.238;2022-07-23T10:50:21;603.77;;;557.90;;
735;SDS011;352;48.626;9.238;2022-07-23T10:53:12;568.40;;;523.40;;
735;SDS011;352;48.626;9.238;2022-07-23T10:55:44;572.73;;;527.60;;
735;SDS011;352;48.626;9.238;2022-07-23T10:58:18;600.67;;;554.53;;
735;SDS011;352;48.626;9.238;2022-07-23T11:00:46;570.50;;;525.40;;
735;SDS011;352;48.626;9.238;2022-07-23T11:03:33;576.10;;;530.93;;
735;SDS011;352;48.626;9.238;2022-07-23T11:06:03;569.73;;;524.87;;
735;SDS011;352;48.626;9.238;2022-07-23T11:08:30;588.67;;;543.53;;
735;SDS011;352;48.626;9.238;2022-07-23T11:11:10;611.37;;;565.47;;
735;SDS011;352;48.626;9.238;2022-07-23T11:13:39;612.33;;;566.17;;
735;SDS011;352;48.626;9.238;2022-07-23T11:16:12;580.23;;;535.20;;
735;SDS011;352;48.626;9.238;2022-07-23T11:18:59;593.93;;;548.17;;
735;SDS011;352;48.626;9.238;2022-07-23T11:24:26;568.60;;;523.13;;
735;SDS011;352;48.626;9.238;2022-07-23T11:26:57;588.13;;;541.97;;
735;SDS011;352;48.626;9.238;2022-07-23T11:29:43;571.60;;;525.73;;
735;SDS011;352;48.626;9.238;2022-07-23T11:35:21;530.90;;;485.60;;
735;SDS011;352;48.626;9.238;2022-07-23T11:37:50;512.73;;;468.30;;
735;SDS011;352;48.626;9.238;2022-07-23T11:40:29;511.17;;;466.37;;
735;SDS011;352;48.626;9.238;2022-07-23T11:42:57;500.37;;;455.80;;
735;SDS011;352;48.626;9.238;2022-07-23T11:45:30;506.50;;;461.80;;
735;SDS011;352;48.626;9.238;2022-07-23T11:47:59;490.80;;;446.10;;
735;SDS011;352;48.626;9.238;2022-07-23T11:50:26;497.77;;;452.77;;
735;SDS011;352;48.626;9.238;2022-07-23T11:52:53;502.77;;;458.03;;
735;SDS011;352;48.626;9.238;2022-07-23T11:55:20;481.83;;;437.23;;
735;SDS011;352;48.626;9.238;2022-07-23T11:57:50;478.83;;;434.73;;
735;SDS011;352;48.626;9.238;2022-07-23T12:00:18;471.93;;;428.03;;
735;SDS011;352;48.626;9.238;2022-07-23T12:02:48;486.10;;;441.93;;
735;SDS011;352;48.626;9.238;2022-07-23T12:05:17;497.60;;;452.97;;
735;SDS011;352;48.626;9.238;2022-07-23T12:07:46;498.67;;;454.23;;
735;SDS011;352;48.626;9.238;2022-07-23T12:10:16;482.07;;;438.13;;
735;SDS011;352;48.626;9.238;2022-07-23T12:12:45;489.23;;;445.20;;
735;SDS011;352;48.626;9.238;2022-07-23T12:15:14;499.10;;;454.87;;
735;SDS011;352;48.626;9.238;2022-07-23T12:17:43;516.80;;;472.30;;
735;SDS011;352;48.626;9.238;2022-07-23T12:20:13;486.27;;;442.27;;
735;SDS011;352;48.626;9.238;2022-07-23T12:22:41;509.37;;;464.70;;
735;SDS011;352;48.626;9.238;2022-07-23T12:25:10;508.23;;;463.67;;
735;SDS011;352;48.626;9.238;2022-07-23T12:27:38;478.33;;;434.30;;
735;SDS011;352;48.626;9.238;2022-07-23T12:30:15;497.57;;;452.93;;
735;SDS011;352;48.626;9.238;2022-07-23T12:32:43;475.73;;;431.67;;
735;SDS011;352;48.626;9.238;2022-07-23T12:35:10;473.23;;;429.17;;
735;SDS011;352;48.626;9.238;2022-07-23T12:37:39;489.27;;;444.27;;
735;SDS011;352;48.626;9.238;2022-07-23T12:43:03;478.00;;;433.33;;
735;SDS011;352;48.626;9.238;2022-07-23T12:45:44;478.37;;;433.73;;
735;SDS011;352;48.626;9.238;2022-07-23T12:48:16;493.47;;;448.53;;
735;SDS011;352;48.626;9.238;2022-07-23T12:50:48;474.20;;;429.90;;
735;SDS011;352;48.626;9.238;2022-07-23T12:53:19;491.20;;;446.23;;
735;SDS011;352;48.626;9.238;2022-07-23T12:55:48;492.97;;;447.60;;
735;SDS011;352;48.626;9.238;2022-07-23T12:58:16;479.37;;;434.00;;
735;SDS011;352;48.626;9.238;2022-07-23T13:03:33;470.40;;;425.57;;
735;SDS011;352;48.626;9.238;2022-07-23T13:06:03;485.30;;;440.37;;
735;SDS011;352;48.626;9.238;2022-07-23T13:08:34;455.20;;;411.10;;
735;SDS011;352;48.626;9.238;2022-07-23T13:11:03;459.37;;;414.80;;
735;SDS011;352;48.626;9.238;2022-07-23T13:13:31;490.90;;;445.83;;
735;SDS011;352;48.626;9.238;2022-07-23T13:16:00;446.83;;;402.53;;
735;SDS011;352;48.626;9.238;2022-07-23T13:18:27;447.07;;;402.97;;
735;SDS011;352;48.626;9.238;2022-07-23T13:20:55;457.43;;;412.80;;
735;SDS011;352;48.626;9.238;2022-07-23T13:23:22;465.03;;;420.13;;
735;SDS011;352;48.626;9.238;2022-07-23T13:25:51;456.67;;;412.13;;
735;SDS011;352;48.626;9.238;2022-07-23T13:28:18;460.57;;;415.93;;
735;SDS011;352;48.626;9.238;2022-07-23T13:30:46;458.83;;;414.30;;
735;SDS011;352;48.626;9.238;2022-07-23T13:33:15;460.40;;;416.10;;
735;SDS011;352;48.626;9.238;2022-07-23T13:35:43;457.87;;;413.13;;
735;SDS011;352;48.626;9.238;2022-07-23T13:38:10;460.20;;;415.27;;
735;SDS011;352;48.626;9.238;2022-07-23T13:40:39;444.47;;;400.57;;
735;SDS011;352;48.626;9.238;2022-07-23T13:43:09;438.90;;;395.37;;
735;SDS011;352;48.626;9.238;2022-07-23T13:45:37;416.87;;;373.97;;
735;SDS011;352;48.626;9.238;2022-07-23T13:48:04;431.37;;;388.10;;
735;SDS011;352;48.626;9.238;2022-07-23T13:50:31;434.00;;;390.70;;
735;SDS011;352;48.626;9.238;2022-07-23T13:53:00;422.63;;;379.57;;
735;SDS011;352;48.626;9.238;2022-07-23T13:55:28;434.53;;;391.10;;
735;SDS011;352;48.626;9.238;2022-07-23T13:57:55;435.83;;;392.43;;
735;SDS011;352;48.626;9.238;2022-07-23T14:00:23;434.83;;;391.40;;
735;SDS011;352;48.626;9.238;2022-07-23T14:02:51;440.50;;;396.80;;
735;SDS011;352;48.626;9.238;2022-07-23T14:05:18;442.60;;;399.17;;
735;SDS011;352;48.626;9.238;2022-07-23T14:07:45;447.10;;;403.43;;
735;SDS011;352;48.626;9.238;2022-07-23T14:10:15;444.70;;;401.17;;
735;SDS011;352;48.626;9.238;2022-07-23T14:12:42;427.13;;;383.97;;
735;SDS011;352;48.626;9.238;2022-07-23T14:15:09;438.60;;;395.13;;
735;SDS011;352;48.626;9.238;2022-07-23T14:17:39;432.27;;;388.67;;
735;SDS011;352;48.626;9.238;2022-07-23T14:20:08;434.23;;;390.33;;
735;SDS011;352;48.626;9.238;2022-07-23T14:22:36;425.47;;;381.67;;
735;SDS011;352;48.626;9.238;2022-07-23T14:25:04;422.37;;;379.07;;
735;SDS011;352;48.626;9.238;2022-07-23T14:27:31;412.47;;;369.63;;
735;SDS011;352;48.626;9.238;2022-07-23T14:29:59;416.73;;;373.63;;
735;SDS011;352;48.626;9.238;2022-07-23T14:32:26;422.67;;;379.23;;
735;SDS011;352;48.626;9.238;2022-07-23T14:34:54;423.50;;;380.40;;
735;SDS011;352;48.626;9.238;2022-07-23T14:37:21;424.93;;;381.77;;
735;SDS011;352;48.626;9.238;2022-07-23T14:39:49;430.63;;;387.23;;
735;SDS011;352;48.626;9.238;2022-07-23T14:42:17;426.67;;;383.37;;
735;SDS011;352;48.626;9.238;2022-07-23T14:44:44;436.03;;;392.67;;
735;SDS011;352;48.626;9.238;2022-07-23T14:47:12;437.90;;;394.50;;
735;SDS011;352;48.626;9.238;2022-07-23T14:49:39;449.13;;;405.03;;
735;SDS011;352;48.626;9.238;2022-07-23T14:52:07;453.53;;;409.67;;
735;SDS011;352;48.626;9.238;2022-07-23T14:54:34;436.50;;;393.53;;
735;SDS011;352;48.626;9.238;2022-07-23T14:57:02;432.97;;;389.77;;
735;SDS011;352;48.626;9.238;2022-07-23T14:59:30;458.70;;;414.67;;
735;SDS011;352;48.626;9.238;2022-07-23T15:01:57;455.20;;;411.27;;
735;SDS011;352;48.626;9.238;2022-07-23T15:04:25;450.67;;;407.17;;
735;SDS011;352;48.626;9.238;2022-07-23T15:06:52;448.03;;;404.50;;
735;SDS011;352;48.626;9.238;2022-07-23T15:09:20;452.67;;;408.97;;